Αναφορές METAR

 

LGKZ - Kozani (civ/Army, Greece
Distance from station: ΝΔ 41km
Ενημερώθηκε: 06/12/2021 03:50
Ασθενής βροχή
Ασθενής βροχή
 Ανεμος από varies
Ανεμος: varies 2 km/h
Θερμοκρασία: 6°C
Σημείο Δρόσου: 5°C
Υγρασία: 93%
Βαρόμετρο: 1007 hPa
Περίληψη: Ασθενής βροχή
2021/12/06 01:50 LGKZ 060150Z AUTO VRB01KT //// -RA ////// 06/05 Q1007 RE//
LGTS - Thessaloniki/Mik, Greece
Distance from station: Α 64km
Ενημερώθηκε: 06/12/2021 03:50
Few Clouds
Few Clouds
 Ανεμος από ΝΑ
Ανεμος: ΝΑ 7 km/h
Θερμοκρασία: 13°C
Σημείο Δρόσου: 10°C
Υγρασία: 82%
Βαρόμετρο: 1007 hPa
Clouds: Few Clouds
Visibility: 10 km
Cloud details: Few Clouds 610 m
2021/12/06 01:50 LGTS 060150Z 14004KT 9999 FEW020 13/10 Q1007 NOSIG
 
LGIO - Ioannina, Greece
Distance from station: ΝΔ 149km
Ενημερώθηκε: 06/12/2021 03:50
Ασθενής βροχή
Ασθενής βροχή
 Ανεμος από varies
Ανεμος: varies 6 km/h
Θερμοκρασία: 10°C
Σημείο Δρόσου: 10°C
Υγρασία: 100%
Βαρόμετρο: 1007 hPa
Περίληψη: Ασθενής βροχή
2021/12/06 01:50 LGIO 060150Z AUTO VRB03KT //// -RA ////// 10/10 Q1007 RE//
LGBL - Nea Anchialos, Greece
Distance from station: ΝΝΑ 154km
Ενημερώθηκε: 06/12/2021 03:50
Μερικώς νεφελώδης
Μερικώς νεφελώδης
 Ανεμος από varies
Ανεμος: varies 6 km/h
Θερμοκρασία: 7°C
Σημείο Δρόσου: 7°C
Υγρασία: 100%
Βαρόμετρο: 1008 hPa
Clouds: Μερικώς νεφελώδης
Visibility: 10 km
Cloud details: Μερικώς νεφελώδης 366 m
Μερικώς νεφελώδης 2438 m
2021/12/06 01:50 LGBL 060150Z VRB03KT 9999 SCT012 SCT080 07/07 Q1008
 
LGSK - Skiathos Island, Greece
Distance from station: ΝΑ 185km
Ενημερώθηκε: 05/12/2021 12:50
NOT Current
Few Clouds
Few Clouds
 Ανεμος από ΝΝΔ
Ανεμος: ΝΝΔ 11 km/h
Θερμοκρασία: 16°C
Σημείο Δρόσου: 10°C
Υγρασία: 68%
Βαρόμετρο: 1012 hPa
Clouds: Few Clouds
Visibility: 10 km
Cloud details: Few Clouds 762 m
2021/12/05 10:50 LGSK 051050Z 20006KT 9999 FEW025 16/10 Q1012
LGKV - Kavala/Chrisoupo, Greece
Distance from station: ΑΒΑ 208km
Ενημερώθηκε: 05/12/2021 20:20
NOT Current
Few Clouds
Few Clouds
 Ανεμος από calm
Ανεμος: Απνοια
Θερμοκρασία: 10°C
Σημείο Δρόσου: 9°C
Υγρασία: 94%
Βαρόμετρο: 1010 hPa
Clouds: Few Clouds
Visibility: 10 km
Cloud details: Few Clouds 610 m
2021/12/05 18:20 LGKV 051820Z 00000KT 9999 FEW020 10/09 Q1010
 
LGPZ - Preveza/Aktion, Greece
Distance from station: ΝΔ 217km
Ενημερώθηκε: 06/12/2021 03:50

 Ανεμος από Ν
Ανεμος: Ν 15 km/h
Θερμοκρασία: 15°C
Σημείο Δρόσου: 11°C
Υγρασία: 77%
Βαρόμετρο: 1007 hPa
2021/12/06 01:50 LGPZ 060150Z AUTO 19008KT 140V270 //// // ////// 15/11 Q1007 RERA
LGKR - Ioannis Kapodist, Greece
Distance from station: ΔΝΔ 219km
Ενημερώθηκε: 06/12/2021 01:50
NOT Current
Σχεδόν νεφελώδης
Σχεδόν νεφελώδης
 Ανεμος από Ν
Ανεμος: Ν 11 km/h
Θερμοκρασία: 16°C
Σημείο Δρόσου: 10°C
Υγρασία: 68%
Βαρόμετρο: 1006 hPa
Clouds: Σχεδόν νεφελώδης
Visibility: 10 km
Cloud details: Μερικώς νεφελώδης 914 m
Σχεδόν νεφελώδης 2134 m
2021/12/05 23:50 LGKR 052350Z 18006KT 9999 SCT030 BKN070 16/10 Q1006 NOSIG
 
LGSY - Skiros, Greece
Distance from station: ΝΑ 261km
Ενημερώθηκε: 05/12/2021 19:50
NOT Current
Few Clouds
Few Clouds
 Ανεμος από Ν
Ανεμος: Ν 15 km/h
Θερμοκρασία: 14°C
Σημείο Δρόσου: 11°C
Υγρασία: 82%
Βαρόμετρο: 1010 hPa
Clouds: Few Clouds
Visibility: 10 km
Cloud details: Few Clouds 762 m
2021/12/05 17:50 LGSY 051750Z 17008KT 9999 FEW025 14/11 Q1010 BLU
LGLM - Limnos Island Ar, Greece
Distance from station: ΑΝΑ 266km
Ενημερώθηκε: 06/12/2021 03:50
Μερικώς νεφελώδης
Μερικώς νεφελώδης
 Ανεμος από Ν
Ανεμος: Ν 20 km/h
Θερμοκρασία: 16°C
Σημείο Δρόσου: 13°C
Υγρασία: 83%
Βαρόμετρο: 1009 hPa
Clouds: Μερικώς νεφελώδης
Visibility: 10 km
Cloud details: Μερικώς νεφελώδης 610 m
2021/12/06 01:50 LGLM 060150Z 19011KT 9999 SCT020 16/13 Q1009
 
LGRX - Araxos (civ/Afb), Greece
Distance from station: ΝΝΔ 271km
Ενημερώθηκε: 06/12/2021 03:50
Σχεδόν νεφελώδης
Σχεδόν νεφελώδης
 Ανεμος από Ν
Ανεμος: Ν 20 km/h
Θερμοκρασία: 15°C
Σημείο Δρόσου: 11°C
Υγρασία: 77%
Βαρόμετρο: 1010 hPa
Clouds: Σχεδόν νεφελώδης
Visibility: 10 km
Cloud details: Few Clouds 610 m
Μερικώς νεφελώδης 914 m
Σχεδόν νεφελώδης 2134 m
2021/12/06 01:50 LGRX 060150Z 17011KT 9999 FEW020 SCT030 BKN070 15/11 Q1010
LGEL - Elefsis (hel-Afb, Greece
Distance from station: ΝΝΑ 297km
Ενημερώθηκε: 06/12/2021 03:50

 Ανεμος από varies
Ανεμος: varies 6 km/h
Θερμοκρασία: 9°C
Σημείο Δρόσου: 8°C
Υγρασία: 94%
Βαρόμετρο: 1008 hPa
2021/12/06 01:50 LGEL 060150Z AUTO VRB03KT //// // ////// 09/08 Q1008 RE//
 
LGAD - Andravida (civ/A, Greece
Distance from station: ΝΝΔ 301km
Ενημερώθηκε: 06/12/2021 03:50

 Ανεμος από ΝΝΑ
Ανεμος: ΝΝΑ 9 km/h
Θερμοκρασία: 14°C
Σημείο Δρόσου: 11°C
Υγρασία: 82%
Βαρόμετρο: 1009 hPa
2021/12/06 01:50 LGAD 060150Z AUTO 16005KT 150V210 //// // ////// 14/11 Q1009 RE//
LGKF - Kefallinia, Greece
Distance from station: ΝΝΔ 305km
Ενημερώθηκε: 05/12/2021 19:50
NOT Current
Σχεδόν νεφελώδης
Σχεδόν νεφελώδης
 Ανεμος από ΝΝΑ
Ανεμος: ΝΝΑ 15 km/h
Θερμοκρασία: 15°C
Σημείο Δρόσου: 14°C
Υγρασία: 94%
Βαρόμετρο: 1011 hPa
Clouds: Σχεδόν νεφελώδης
Visibility: 10 km
Cloud details: Few Clouds 366 m
Μερικώς νεφελώδης 549 m
Σχεδόν νεφελώδης 2134 m
2021/12/05 17:50 LGKF 051750Z 15008KT 9999 FEW012 SCT018 BKN070 15/14 Q1011 RERA